Joliet Airport

About
Name: Joliet Airport
Identifier:  JOT/KJOT
Local Time:  20. Aug 01:09
Location
Flights per Day
0 flights
Punctuality
75% (0 flights per day delayed)
Delay Average: 38 minutes
Current Weather
 27 C (Humidity: 88%)
  0kt (0km/h / 0mph) from 0°
  16km (10 mi.)
 
 METAR KJOT 200035Z AUTO 00000KT 10SM CLR 27/25 A2998 RMK AO2 LTG DSNT SW T02730245

Current Flights

Departures
Number Departure To Airline
Arrivals
Number Arrival From Airline

Current Delays

Departures
N/A
Arrivals
N/A

Destinations

Top Destinations
Airport Flights
per week
Seats
per week
  Milwaukee (MKE) 1 - 0 0
  Chicago (DPA) 0 - 0 0
  Chicago (PWK) 0 - 0 0
  Chicago (MDW) 0 - 0 0
  Des Moines (DSM) 0 - 0 0

Airlines & Planes

Top Airlines
Airline Flights
per Day
Seats
per Day
  Nolinor Aviation 0 -
Nordwind Airlines 0 -
  National Airlines 0 -
  Flybe Nordic 0 -
Top Plane Types
Model Flights Seats
Beech E90 King Air 0.2/day - 0
Piper PA-46-350P Malibu Mirage 0.0/day - 0
Cessna C172 0.0/day - 0